Briefing drone pour Longvic

Rechercher une autre localisation

Conditions de vol :


Nous sommes le : Mercredi 23 septembre 2020
Il est 07:29 UTC (09:29 LT)

Lever de soleil : 05:01 UTC (07:01 LT)
Coucher de soleil : 18:01 UTC (20:01 LT)

Météo

L'essentiel des conditions de vol

VIGILANCE MÉTÉO FRANCE - Côte-dOr (21)
Pas de vigilances particulieres
CARTES DES FRONTS
METAR de LFSD
LFSD 230700Z AUTO 20005KT 9999 BKN040 OVC052 17/16 Q1011

Date d'émission: 23/09/2020
Heure d'émission: 07:00 UTC
Vent: 200° pour 5 KT (9 km/h)
Visibilité horizontale: > 10 km
Plafond :
- Nuages morcelés à 4000ft (1219m)
- Couvert à 5200ft (1585m)
Température: 17 °C
Point de rosée: 16 °C
Humidité: 94%
Pression (QNH): 1011 hPa
TAF de LFSD
LFSD 010600Z 0100/0124 CNL

Conditions prévues :

Heure d'émission : Bulletin éffectué le 01 à 00:00 UTC
Prévision : Valide du 01 a 00:00 UTC au 01 a 23:59 UTC
Nuages : à 0ft (0 m)
WEBCAM POUR LONGVIC

Réglementation

Voler en sécurité

CARTES AERONAUTIQUE 1/500.000
CARTES VAC (LFSD)
SUP AIP




Chargement des AIP...
NOTAM (LONGVIC + Terrain à proximité / FIR )




Chargement des NOTAMS...
CONTACT PREFECTURE 21
Côte-dOr (21) : pref-drone@cote-dor.gouv.fr


Avertissement : Les données mises à disposition sont indicatives. Oxygène Drone ne pourra être tenu responsable de dégâts causés aux biens et aux personnes.